Time;durP1;ratioP1;P1;durP2;ratioP2;P2;SDS_P1;SDS_P2;PMS_P1;PMS_P2;Temp;Humidity;BMP_temperature;BMP_pressure;BME280_temperature;BME280_humidity;BME280_pressure;Samples;Min_cycle;Max_cycle;Signal;HPM_P1;HPM_P2
2022/09/15 00:01:13;;;;;;;340.10;190.97;;;;;;;;;;4975527;28;20919;-50
2022/09/15 00:03:39;;;;;;;276.37;164.03;;;;;;;;;;4983586;28;20348;-50
2022/09/15 00:06:06;;;;;;;289.47;173.37;;;;;;;;;;4979194;28;20832;-51
2022/09/15 00:08:31;;;;;;;329.30;194.17;;;;;;;;;;4985307;28;20264;-50
2022/09/15 00:11:04;;;;;;;332.97;192.73;;;;;;;;;;4985942;28;20203;-50
2022/09/15 00:13:30;;;;;;;347.43;195.47;;;;;;;;;;4977553;28;20187;-50
2022/09/15 00:15:56;;;;;;;349.17;199.30;;;;;;;;;;4975825;28;20194;-50
2022/09/15 00:18:22;;;;;;;318.37;179.83;;;;;;;;;;4976027;28;20584;-50
2022/09/15 00:20:48;;;;;;;303.30;179.30;;;;;;;;;;4973694;28;20648;-51
2022/09/15 00:23:15;;;;;;;322.53;186.17;;;;;;;;;;4983726;28;20239;-50
2022/09/15 00:25:43;;;;;;;279.37;162.30;;;;;;;;;;4984021;28;20254;-50
2022/09/15 00:28:09;;;;;;;352.40;197.67;;;;;;;;;;4978506;28;20554;-50
2022/09/15 00:30:34;;;;;;;321.43;178.27;;;;;;;;;;4978311;28;20190;-50
2022/09/15 00:33:00;;;;;;;280.03;162.10;;;;;;;;;;4989797;28;20345;-50
2022/09/15 00:35:26;;;;;;;300.80;170.70;;;;;;;;;;4984924;28;20220;-50
2022/09/15 00:37:52;;;;;;;304.10;173.40;;;;;;;;;;4991689;28;20624;-50
2022/09/15 00:40:18;;;;;;;257.30;152.03;;;;;;;;;;4984303;28;20625;-50
2022/09/15 00:42:44;;;;;;;393.30;214.60;;;;;;;;;;4981460;28;20685;-50
2022/09/15 00:45:14;;;;;;;310.87;180.07;;;;;;;;;;4983749;28;20360;-50
2022/09/15 00:47:40;;;;;;;308.13;175.97;;;;;;;;;;4976438;28;20529;-50
2022/09/15 00:50:11;;;;;;;327.80;187.43;;;;;;;;;;4984224;28;20485;-50
2022/09/15 00:52:40;;;;;;;327.93;184.93;;;;;;;;;;4979077;28;20189;-50
2022/09/15 00:55:09;;;;;;;333.47;187.67;;;;;;;;;;4978133;28;20208;-50
2022/09/15 00:57:38;;;;;;;281.87;163.17;;;;;;;;;;4983109;28;21237;-50
2022/09/15 01:00:07;;;;;;;314.17;178.53;;;;;;;;;;4984660;28;20181;-51
2022/09/15 01:02:34;;;;;;;315.57;177.77;;;;;;;;;;4979402;28;20882;-50
2022/09/15 01:05:00;;;;;;;310.13;173.87;;;;;;;;;;4971105;28;20216;-50
2022/09/15 01:07:29;;;;;;;308.60;174.63;;;;;;;;;;4982175;28;20312;-50
2022/09/15 01:09:58;;;;;;;331.40;191.57;;;;;;;;;;4980839;28;20664;-51
2022/09/15 01:12:25;;;;;;;306.87;175.60;;;;;;;;;;4982677;28;20324;-50
2022/09/15 01:14:51;;;;;;;295.97;172.70;;;;;;;;;;4989862;28;20285;-50
2022/09/15 01:17:17;;;;;;;300.93;171.53;;;;;;;;;;4984614;28;20300;-50
2022/09/15 01:20:00;;;;;;;293.37;168.17;;;;;;;;;;4987864;28;20185;-50
2022/09/15 01:22:32;;;;;;;325.73;183.00;;;;;;;;;;4979289;28;20247;-50
2022/09/15 01:24:58;;;;;;;256.93;154.50;;;;;;;;;;4988525;28;20200;-50
2022/09/15 01:27:34;;;;;;;371.57;200.80;;;;;;;;;;4977902;28;20189;-50
2022/09/15 01:30:14;;;;;;;296.97;172.67;;;;;;;;;;4982062;28;20188;-50
2022/09/15 01:33:04;;;;;;;260.73;153.73;;;;;;;;;;4981260;28;20181;-50
2022/09/15 01:35:33;;;;;;;298.03;172.93;;;;;;;;;;4982581;28;20211;-50
2022/09/15 01:38:05;;;;;;;309.00;180.07;;;;;;;;;;4974283;28;20718;-50
2022/09/15 01:40:34;;;;;;;269.40;157.77;;;;;;;;;;4983279;28;20344;-50
2022/09/15 01:43:01;;;;;;;356.90;196.83;;;;;;;;;;4976539;28;20189;-50
2022/09/15 01:45:29;;;;;;;324.17;181.07;;;;;;;;;;4978037;28;20213;-50
2022/09/15 01:47:57;;;;;;;299.33;174.27;;;;;;;;;;4986743;28;20184;-50
2022/09/15 01:50:25;;;;;;;316.20;177.87;;;;;;;;;;4974635;28;21675;-50
2022/09/15 01:52:53;;;;;;;303.07;178.30;;;;;;;;;;4984661;28;20290;-50
2022/09/15 01:55:24;;;;;;;273.33;161.17;;;;;;;;;;4976716;28;20222;-50
2022/09/15 01:57:50;;;;;;;310.33;179.40;;;;;;;;;;4978061;28;20223;-51
2022/09/15 02:00:16;;;;;;;366.57;202.80;;;;;;;;;;4969602;28;20194;-50
2022/09/15 02:02:50;;;;;;;286.70;167.73;;;;;;;;;;4979584;28;20272;-50
2022/09/15 02:05:19;;;;;;;325.10;178.03;;;;;;;;;;4973444;28;20212;-50
2022/09/15 02:07:52;;;;;;;266.57;158.93;;;;;;;;;;4977653;28;20273;-50
2022/09/15 02:10:21;;;;;;;328.43;185.60;;;;;;;;;;4978127;28;20244;-50
2022/09/15 02:12:50;;;;;;;296.07;173.10;;;;;;;;;;4975250;28;20573;-51
2022/09/15 02:15:21;;;;;;;308.97;172.03;;;;;;;;;;4981089;28;20992;-50
2022/09/15 02:17:52;;;;;;;246.83;153.17;;;;;;;;;;4984935;28;20302;-50
2022/09/15 02:20:31;;;;;;;337.70;191.83;;;;;;;;;;4980194;28;20204;-50
2022/09/15 02:22:59;;;;;;;335.47;189.37;;;;;;;;;;4973628;28;20196;-50
2022/09/15 02:25:32;;;;;;;322.13;179.20;;;;;;;;;;4970335;28;20235;-50
2022/09/15 02:28:01;;;;;;;311.27;175.50;;;;;;;;;;4977647;28;20193;-50
2022/09/15 02:30:28;;;;;;;311.63;176.67;;;;;;;;;;4982811;28;20680;-50
2022/09/15 02:32:59;;;;;;;335.67;186.33;;;;;;;;;;4977341;28;20638;-50
2022/09/15 02:35:27;;;;;;;327.77;186.87;;;;;;;;;;4970455;28;20292;-50
2022/09/15 02:37:54;;;;;;;306.33;174.27;;;;;;;;;;4980521;28;20213;-50
2022/09/15 02:40:21;;;;;;;340.47;189.53;;;;;;;;;;4979813;28;20617;-50
2022/09/15 02:42:54;;;;;;;278.20;161.57;;;;;;;;;;4980719;28;20189;-50
2022/09/15 02:45:20;;;;;;;353.27;194.87;;;;;;;;;;4976004;28;20295;-50
2022/09/15 02:47:46;;;;;;;324.63;184.83;;;;;;;;;;4971707;28;20180;-50
2022/09/15 02:50:12;;;;;;;340.40;188.73;;;;;;;;;;4973472;28;20204;-50
2022/09/15 02:52:38;;;;;;;315.70;177.40;;;;;;;;;;4981748;28;20774;-50
2022/09/15 02:55:04;;;;;;;276.07;157.70;;;;;;;;;;4975008;28;20391;-50
2022/09/15 02:57:30;;;;;;;338.00;188.10;;;;;;;;;;4968923;28;20311;-50
2022/09/15 03:00:12;;;;;;;342.37;189.13;;;;;;;;;;4968662;28;22033;-50
2022/09/15 03:02:38;;;;;;;329.33;186.43;;;;;;;;;;4981133;28;20542;-50
2022/09/15 03:05:05;;;;;;;421.53;192.80;;;;;;;;;;4998568;23;20203;-54
2022/09/15 03:07:31;;;;;;;323.37;167.47;;;;;;;;;;5018499;28;20219;-54
2022/09/15 03:09:57;;;;;;;258.23;136.47;;;;;;;;;;5024299;28;20188;-53
2022/09/15 03:12:23;;;;;;;263.57;137.67;;;;;;;;;;5021414;28;20609;-54
2022/09/15 03:14:49;;;;;;;257.67;137.73;;;;;;;;;;5020668;28;20215;-54
2022/09/15 03:17:15;;;;;;;252.50;134.60;;;;;;;;;;5017136;28;20189;-54
2022/09/15 03:19:41;;;;;;;279.27;150.63;;;;;;;;;;5022517;28;20695;-54
2022/09/15 03:22:08;;;;;;;275.93;149.43;;;;;;;;;;5025057;28;20184;-53
2022/09/15 03:24:34;;;;;;;260.47;140.57;;;;;;;;;;5025937;28;20202;-54
2022/09/15 03:27:00;;;;;;;289.23;153.60;;;;;;;;;;5013501;28;20345;-54
2022/09/15 03:29:26;;;;;;;259.70;142.83;;;;;;;;;;5019787;28;20189;-54
2022/09/15 03:31:52;;;;;;;267.10;143.20;;;;;;;;;;5026276;28;20175;-53
2022/09/15 03:34:18;;;;;;;279.17;149.23;;;;;;;;;;5021578;28;20330;-54
2022/09/15 03:36:44;;;;;;;234.27;132.67;;;;;;;;;;5029784;28;20187;-54
2022/09/15 03:39:14;;;;;;;270.33;143.77;;;;;;;;;;5019621;28;20180;-54
2022/09/15 03:41:40;;;;;;;262.40;144.47;;;;;;;;;;5025398;28;20185;-54
2022/09/15 03:44:06;;;;;;;308.50;158.57;;;;;;;;;;5013501;28;20259;-54
2022/09/15 03:46:32;;;;;;;282.87;153.03;;;;;;;;;;5025629;28;20773;-54
2022/09/15 03:48:58;;;;;;;267.13;144.50;;;;;;;;;;5020821;28;20240;-54
2022/09/15 03:51:24;;;;;;;262.57;141.60;;;;;;;;;;5024228;28;20250;-54
2022/09/15 03:53:50;;;;;;;338.57;177.87;;;;;;;;;;5017747;28;20881;-54
2022/09/15 03:56:30;;;;;;;295.70;158.63;;;;;;;;;;5012729;28;20272;-54
2022/09/15 03:58:56;;;;;;;291.30;150.63;;;;;;;;;;5019984;28;20659;-54
2022/09/15 04:01:22;;;;;;;280.93;147.73;;;;;;;;;;5018002;28;20540;-54
2022/09/15 04:03:48;;;;;;;332.63;172.43;;;;;;;;;;5017271;28;20279;-54
2022/09/15 04:06:14;;;;;;;254.40;137.40;;;;;;;;;;5021260;28;20205;-54
2022/09/15 04:08:40;;;;;;;268.20;141.17;;;;;;;;;;4999333;28;20223;-53
2022/09/15 04:11:07;;;;;;;250.40;134.70;;;;;;;;;;5018038;28;20465;-54
2022/09/15 04:13:33;;;;;;;296.80;154.13;;;;;;;;;;5018822;28;20196;-53
2022/09/15 04:16:00;;;;;;;253.33;136.33;;;;;;;;;;5022159;28;20184;-54
2022/09/15 04:18:27;;;;;;;247.53;132.03;;;;;;;;;;5026115;28;20643;-54
2022/09/15 04:20:53;;;;;;;265.43;137.73;;;;;;;;;;5026705;28;20536;-53
2022/09/15 04:23:19;;;;;;;265.60;139.23;;;;;;;;;;5018767;28;20177;-54
2022/09/15 04:25:54;;;;;;;247.60;131.27;;;;;;;;;;5021799;28;20211;-53
2022/09/15 04:28:20;;;;;;;256.60;133.83;;;;;;;;;;5016690;28;20200;-54
2022/09/15 04:30:45;;;;;;;251.33;131.37;;;;;;;;;;5029059;28;20331;-54
2022/09/15 04:33:11;;;;;;;260.37;135.17;;;;;;;;;;5024070;28;20190;-54
2022/09/15 04:35:38;;;;;;;259.27;136.47;;;;;;;;;;5030633;28;20265;-54
2022/09/15 04:38:04;;;;;;;257.37;133.10;;;;;;;;;;5029879;28;20183;-54
2022/09/15 04:40:30;;;;;;;264.60;136.50;;;;;;;;;;5027863;28;20600;-54
2022/09/15 04:42:57;;;;;;;270.60;142.43;;;;;;;;;;5026421;28;20199;-54
2022/09/15 04:45:22;;;;;;;290.50;148.90;;;;;;;;;;5028306;28;20234;-53
2022/09/15 04:47:50;;;;;;;255.70;133.70;;;;;;;;;;5021891;28;20209;-53
2022/09/15 04:50:16;;;;;;;214.30;117.90;;;;;;;;;;5033771;28;20184;-54
2022/09/15 04:52:42;;;;;;;212.73;118.10;;;;;;;;;;5024902;28;20335;-54
2022/09/15 04:55:08;;;;;;;204.90;118.37;;;;;;;;;;5032710;28;20699;-54
2022/09/15 04:57:34;;;;;;;225.27;121.43;;;;;;;;;;5032937;28;20552;-54
2022/09/15 05:00:03;;;;;;;204.90;115.20;;;;;;;;;;5043176;28;20220;-54
2022/09/15 05:02:29;;;;;;;205.40;116.80;;;;;;;;;;5033380;28;20229;-54
2022/09/15 05:04:55;;;;;;;208.97;116.23;;;;;;;;;;5037503;28;20211;-55
2022/09/15 05:07:21;;;;;;;200.50;113.10;;;;;;;;;;5037800;28;20200;-55
2022/09/15 05:09:47;;;;;;;197.43;112.50;;;;;;;;;;5034589;28;20183;-54
2022/09/15 05:12:13;;;;;;;232.80;128.57;;;;;;;;;;5024211;28;20196;-55
2022/09/15 05:14:39;;;;;;;198.53;112.83;;;;;;;;;;5037645;28;20218;-54
2022/09/15 05:17:04;;;;;;;184.03;109.53;;;;;;;;;;5030762;28;20212;-54
2022/09/15 05:19:30;;;;;;;199.17;115.30;;;;;;;;;;5035461;28;20207;-54
2022/09/15 05:21:56;;;;;;;209.63;120.23;;;;;;;;;;5035651;28;20712;-54
2022/09/15 05:24:22;;;;;;;196.80;115.10;;;;;;;;;;5035983;28;20234;-54
2022/09/15 05:26:48;;;;;;;198.50;117.93;;;;;;;;;;5035856;28;20177;-54
2022/09/15 05:29:14;;;;;;;192.73;117.20;;;;;;;;;;5037111;28;20172;-54
2022/09/15 05:31:40;;;;;;;220.30;123.83;;;;;;;;;;5035502;28;20258;-54
2022/09/15 05:34:06;;;;;;;234.50;130.93;;;;;;;;;;5033473;28;20770;-55
2022/09/15 05:36:32;;;;;;;207.67;127.40;;;;;;;;;;5032393;28;20185;-55
2022/09/15 05:39:00;;;;;;;207.50;126.47;;;;;;;;;;5031706;28;20195;-55
2022/09/15 05:41:27;;;;;;;192.60;119.63;;;;;;;;;;5031871;28;20204;-55
2022/09/15 05:43:53;;;;;;;197.17;120.40;;;;;;;;;;5030317;28;20254;-55
2022/09/15 05:46:19;;;;;;;195.13;115.23;;;;;;;;;;5031114;28;20191;-53
2022/09/15 05:48:46;;;;;;;216.57;121.43;;;;;;;;;;5030748;28;20211;-53
2022/09/15 05:51:13;;;;;;;200.00;118.07;;;;;;;;;;5031147;28;20271;-53
2022/09/15 05:53:39;;;;;;;191.83;112.50;;;;;;;;;;5035405;28;20710;-52
2022/09/15 05:56:05;;;;;;;194.53;114.47;;;;;;;;;;5037437;28;20177;-54
2022/09/15 05:58:32;;;;;;;211.57;120.20;;;;;;;;;;5038293;28;20172;-54
2022/09/15 06:01:02;;;;;;;183.97;111.80;;;;;;;;;;5037456;28;20258;-54
2022/09/15 06:03:28;;;;;;;214.10;122.23;;;;;;;;;;5036306;28;20549;-52
2022/09/15 06:05:58;;;;;;;214.67;125.00;;;;;;;;;;5036147;28;20216;-52
2022/09/15 06:08:24;;;;;;;224.57;122.93;;;;;;;;;;5036072;28;20204;-52
2022/09/15 06:10:50;;;;;;;211.07;121.03;;;;;;;;;;5036641;28;20173;-52
2022/09/15 06:13:16;;;;;;;220.20;123.73;;;;;;;;;;5036258;28;20176;-52
2022/09/15 06:15:42;;;;;;;212.37;121.27;;;;;;;;;;5036038;28;20196;-52
2022/09/15 06:18:08;;;;;;;181.13;111.57;;;;;;;;;;5036140;28;20179;-52
2022/09/15 06:20:34;;;;;;;186.93;113.67;;;;;;;;;;5036388;28;20318;-53
2022/09/15 06:23:00;;;;;;;222.03;123.47;;;;;;;;;;5036637;28;20184;-54
2022/09/15 06:25:26;;;;;;;217.17;125.20;;;;;;;;;;5036898;28;20211;-54
2022/09/15 06:27:53;;;;;;;214.73;125.50;;;;;;;;;;5036623;28;20196;-54
2022/09/15 06:30:19;;;;;;;216.27;126.73;;;;;;;;;;5035506;28;20214;-53
2022/09/15 06:32:45;;;;;;;288.13;148.70;;;;;;;;;;5015228;28;20185;-54
2022/09/15 06:35:11;;;;;;;281.40;149.90;;;;;;;;;;5009916;28;20207;-53
2022/09/15 06:37:37;;;;;;;273.63;146.20;;;;;;;;;;5018903;28;20192;-53
2022/09/15 06:40:04;;;;;;;201.10;125.17;;;;;;;;;;5019174;28;20268;-53
2022/09/15 06:42:29;;;;;;;234.43;131.63;;;;;;;;;;5017147;28;20188;-53
2022/09/15 06:44:57;;;;;;;250.20;138.30;;;;;;;;;;5012785;28;20215;-53
2022/09/15 06:47:22;;;;;;;259.03;141.97;;;;;;;;;;5022765;28;20214;-53
2022/09/15 06:49:48;;;;;;;271.70;149.33;;;;;;;;;;5020688;28;20180;-53
2022/09/15 06:52:14;;;;;;;246.80;141.10;;;;;;;;;;5019183;28;20181;-53
2022/09/15 06:54:40;;;;;;;211.03;125.33;;;;;;;;;;5028366;28;20204;-54
2022/09/15 06:57:06;;;;;;;215.90;124.70;;;;;;;;;;5035047;28;20184;-54
2022/09/15 06:59:32;;;;;;;235.10;134.23;;;;;;;;;;5034907;28;20255;-54
2022/09/15 07:01:58;;;;;;;225.13;125.93;;;;;;;;;;5034494;28;20261;-54
2022/09/15 07:04:24;;;;;;;206.77;123.43;;;;;;;;;;5034556;28;20253;-54
2022/09/15 07:06:50;;;;;;;255.00;145.30;;;;;;;;;;5034261;28;20266;-53
2022/09/15 07:09:16;;;;;;;211.93;123.43;;;;;;;;;;5033924;28;20194;-54
2022/09/15 07:11:42;;;;;;;211.93;125.90;;;;;;;;;;5035804;28;20180;-54
2022/09/15 07:14:08;;;;;;;217.93;127.70;;;;;;;;;;5034680;28;20192;-54
2022/09/15 07:16:34;;;;;;;220.40;129.43;;;;;;;;;;5034722;28;20233;-54
2022/09/15 07:19:02;;;;;;;236.13;135.93;;;;;;;;;;5034245;28;20180;-54
2022/09/15 07:21:28;;;;;;;210.77;124.23;;;;;;;;;;5034135;28;20175;-54
2022/09/15 07:23:56;;;;;;;217.43;126.57;;;;;;;;;;5033892;28;20664;-54
2022/09/15 07:26:29;;;;;;;236.57;134.83;;;;;;;;;;5033998;28;20703;-54
2022/09/15 07:28:59;;;;;;;229.23;133.60;;;;;;;;;;5032195;28;20204;-54
2022/09/15 07:31:26;;;;;;;227.63;135.23;;;;;;;;;;5031612;28;20176;-54
2022/09/15 07:33:52;;;;;;;220.70;133.23;;;;;;;;;;5032218;28;20664;-54
2022/09/15 07:36:18;;;;;;;222.43;130.23;;;;;;;;;;5034440;28;20263;-54
2022/09/15 07:38:45;;;;;;;239.07;137.13;;;;;;;;;;5033486;28;20184;-54
2022/09/15 07:41:12;;;;;;;226.43;132.00;;;;;;;;;;5033897;28;20603;-54
2022/09/15 07:43:38;;;;;;;246.93;137.13;;;;;;;;;;5031433;28;20183;-54
2022/09/15 07:46:05;;;;;;;259.23;143.57;;;;;;;;;;5030243;28;20660;-54
2022/09/15 07:48:31;;;;;;;249.00;139.60;;;;;;;;;;5033133;28;20603;-54
2022/09/15 07:50:58;;;;;;;231.93;130.07;;;;;;;;;;5033151;28;20188;-54
2022/09/15 07:53:24;;;;;;;221.97;132.50;;;;;;;;;;5031441;28;20199;-54
2022/09/15 07:55:53;;;;;;;232.13;134.37;;;;;;;;;;5031036;28;20652;-52
2022/09/15 07:58:20;;;;;;;225.57;129.77;;;;;;;;;;5031242;28;20223;-52
2022/09/15 08:00:46;;;;;;;256.00;144.13;;;;;;;;;;5030625;28;20215;-52
2022/09/15 08:03:13;;;;;;;245.13;141.27;;;;;;;;;;5029489;28;20176;-53
2022/09/15 08:05:39;;;;;;;231.73;135.67;;;;;;;;;;5029826;28;20216;-52
2022/09/15 08:08:05;;;;;;;232.77;131.43;;;;;;;;;;5033072;28;20209;-52
2022/09/15 08:10:31;;;;;;;248.63;143.47;;;;;;;;;;5033694;28;20173;-53
2022/09/15 08:13:01;;;;;;;248.43;144.27;;;;;;;;;;5033259;28;20230;-52
2022/09/15 08:15:27;;;;;;;256.80;155.32;;;;;;;;;;5033274;28;20196;-52
2022/09/15 08:17:53;;;;;;;233.73;145.77;;;;;;;;;;5033086;28;20203;-53
2022/09/15 08:20:20;;;;;;;241.93;147.97;;;;;;;;;;5033510;28;20204;-52
2022/09/15 08:22:46;;;;;;;245.95;142.00;;;;;;;;;;5032877;28;20180;-53
2022/09/15 08:25:13;;;;;;;242.48;140.57;;;;;;;;;;5033181;28;20671;-52
2022/09/15 08:27:39;;;;;;;247.63;144.18;;;;;;;;;;5032366;28;20196;-52
2022/09/15 08:30:06;;;;;;;248.80;144.18;;;;;;;;;;5032793;28;20529;-53
2022/09/15 08:32:32;;;;;;;247.73;151.63;;;;;;;;;;5032748;28;20179;-53
2022/09/15 08:34:58;;;;;;;236.05;142.10;;;;;;;;;;5032701;28;20707;-52
2022/09/15 08:37:24;;;;;;;247.63;146.60;;;;;;;;;;5032501;28;20172;-53
2022/09/15 08:39:50;;;;;;;259.17;152.30;;;;;;;;;;5033036;28;20179;-52
2022/09/15 08:42:18;;;;;;;258.77;152.97;;;;;;;;;;5033899;28;20648;-52
2022/09/15 08:44:57;;;;;;;256.17;154.70;;;;;;;;;;5032898;28;20207;-53
2022/09/15 08:47:28;;;;;;;248.83;151.10;;;;;;;;;;5032744;28;20258;-53
2022/09/15 08:50:13;;;;;;;262.43;152.40;;;;;;;;;;5032493;28;20180;-52
2022/09/15 08:52:45;;;;;;;248.77;145.93;;;;;;;;;;5032197;28;20176;-53
2022/09/15 08:55:13;;;;;;;260.83;151.88;;;;;;;;;;5032242;28;20560;-53
2022/09/15 08:57:39;;;;;;;259.55;147.40;;;;;;;;;;5032621;28;20531;-53
2022/09/15 09:00:07;;;;;;;260.75;150.52;;;;;;;;;;5032587;28;20717;-53
2022/09/15 09:02:33;;;;;;;270.65;158.43;;;;;;;;;;5031866;28;20184;-53
2022/09/15 09:04:59;;;;;;;283.05;165.55;;;;;;;;;;5032067;28;20208;-53
2022/09/15 09:07:34;;;;;;;281.67;167.30;;;;;;;;;;5031671;28;20196;-53
2022/09/15 09:10:16;;;;;;;285.43;163.03;;;;;;;;;;5031644;28;20521;-53
2022/09/15 09:13:05;;;;;;;277.07;159.37;;;;;;;;;;5031626;28;20177;-53
2022/09/15 09:15:53;;;;;;;247.53;153.53;;;;;;;;;;5012737;28;20628;-53
2022/09/15 09:18:22;;;;;;;281.63;163.70;;;;;;;;;;5031814;28;20936;-53
2022/09/15 09:21:03;;;;;;;277.27;165.43;;;;;;;;;;5031974;28;20638;-53
2022/09/15 09:23:32;;;;;;;256.92;156.27;;;;;;;;;;5031547;28;20806;-53
2022/09/15 09:26:00;;;;;;;280.60;165.70;;;;;;;;;;5031777;28;20640;-53
2022/09/15 09:28:37;;;;;;;294.75;173.00;;;;;;;;;;5031754;28;20208;-53
2022/09/15 09:31:06;;;;;;;281.85;166.15;;;;;;;;;;5031821;28;20539;-53
2022/09/15 09:33:41;;;;;;;285.43;173.20;;;;;;;;;;5031459;28;20200;-53
2022/09/15 09:36:09;;;;;;;307.85;181.55;;;;;;;;;;5031545;28;20636;-53
2022/09/15 09:38:36;;;;;;;285.08;168.65;;;;;;;;;;5031330;28;20184;-53
2022/09/15 09:41:04;;;;;;;287.75;173.38;;;;;;;;;;5031603;28;20229;-53
2022/09/15 09:43:30;;;;;;;297.27;176.60;;;;;;;;;;5031457;28;20180;-53
2022/09/15 09:45:58;;;;;;;314.70;182.55;;;;;;;;;;5031542;28;20192;-53
2022/09/15 09:48:26;;;;;;;283.27;171.93;;;;;;;;;;5031192;28;20334;-53
2022/09/15 09:50:52;;;;;;;282.67;172.27;;;;;;;;;;5031420;28;20177;-53
2022/09/15 09:53:35;;;;;;;273.42;166.77;;;;;;;;;;5031242;28;20199;-53
2022/09/15 09:56:16;;;;;;;261.20;161.15;;;;;;;;;;5031224;28;20175;-53
2022/09/15 09:58:43;;;;;;;293.98;175.05;;;;;;;;;;5031025;28;20513;-53
2022/09/15 10:01:10;;;;;;;294.13;175.70;;;;;;;;;;5031467;28;20238;-53
2022/09/15 10:03:37;;;;;;;289.90;171.07;;;;;;;;;;5013052;28;20229;-53
2022/09/15 10:06:05;;;;;;;289.63;169.38;;;;;;;;;;5031192;28;20690;-53
2022/09/15 10:08:31;;;;;;;278.70;165.98;;;;;;;;;;5030933;28;20283;-53
2022/09/15 10:11:04;;;;;;;262.13;158.48;;;;;;;;;;5031094;28;20168;-53
2022/09/15 10:13:30;;;;;;;299.67;177.40;;;;;;;;;;5030828;28;20168;-53
2022/09/15 10:15:58;;;;;;;290.30;163.93;;;;;;;;;;5030903;28;20172;-53
2022/09/15 10:18:38;;;;;;;278.80;160.48;;;;;;;;;;5030867;28;20603;-53
2022/09/15 10:21:05;;;;;;;277.25;163.50;;;;;;;;;;5030846;28;20254;-53
2022/09/15 10:23:33;;;;;;;293.65;172.25;;;;;;;;;;5030163;28;20180;-53
2022/09/15 10:26:17;;;;;;;262.80;157.30;;;;;;;;;;5030861;28;20180;-53
2022/09/15 10:28:44;;;;;;;287.50;169.18;;;;;;;;;;5029652;28;20200;-53
2022/09/15 10:31:25;;;;;;;293.95;171.60;;;;;;;;;;5030586;28;20172;-53
2022/09/15 10:33:51;;;;;;;277.70;165.18;;;;;;;;;;5030568;28;20161;-53
2022/09/15 10:36:19;;;;;;;268.98;160.63;;;;;;;;;;5031109;28;20834;-53
2022/09/15 10:38:45;;;;;;;269.83;162.45;;;;;;;;;;5030142;28;20219;-53
2022/09/15 10:41:17;;;;;;;288.77;172.20;;;;;;;;;;5030547;28;20200;-53
2022/09/15 10:43:49;;;;;;;283.75;166.88;;;;;;;;;;5030133;28;20243;-53
2022/09/15 10:46:31;;;;;;;304.27;179.45;;;;;;;;;;5029764;28;20601;-53
2022/09/15 10:49:08;;;;;;;279.20;164.75;;;;;;;;;;5030337;28;20208;-54
2022/09/15 10:51:52;;;;;;;277.35;163.25;;;;;;;;;;5030546;28;20164;-53
2022/09/15 10:54:27;;;;;;;275.42;162.35;;;;;;;;;;5029936;28;20223;-54
2022/09/15 10:57:02;;;;;;;303.90;179.43;;;;;;;;;;5027919;28;20175;-54
2022/09/15 10:59:44;;;;;;;298.38;169.57;;;;;;;;;;5030118;28;20163;-53
2022/09/15 11:02:27;;;;;;;299.25;172.30;;;;;;;;;;5032253;28;20156;-53
2022/09/15 11:05:00;;;;;;;272.80;167.82;;;;;;;;;;5032783;28;20766;-53
2022/09/15 11:07:45;;;;;;;298.15;178.95;;;;;;;;;;5030956;28;20207;-53
2022/09/15 11:10:13;;;;;;;284.60;174.68;;;;;;;;;;5030921;28;20176;-53
2022/09/15 11:12:40;;;;;;;290.30;176.40;;;;;;;;;;5030543;28;20245;-53
2022/09/15 11:15:26;;;;;;;293.50;174.30;;;;;;;;;;5030265;28;20196;-53
2022/09/15 11:17:59;;;;;;;271.02;165.85;;;;;;;;;;5029975;28;20168;-53
2022/09/15 11:20:38;;;;;;;273.02;167.70;;;;;;;;;;5029917;28;20912;-53
2022/09/15 11:23:16;;;;;;;288.30;170.98;;;;;;;;;;5029952;28;20199;-53
2022/09/15 11:25:44;;;;;;;277.10;168.63;;;;;;;;;;5029834;28;20187;-53
2022/09/15 11:28:15;;;;;;;294.55;178.40;;;;;;;;;;5029200;28;20287;-53
2022/09/15 11:30:49;;;;;;;287.20;170.40;;;;;;;;;;5011130;28;20641;-53
2022/09/15 11:33:15;;;;;;;288.65;175.50;;;;;;;;;;5029029;28;20676;-53
2022/09/15 11:35:43;;;;;;;287.85;173.75;;;;;;;;;;5028501;28;20222;-52
2022/09/15 11:38:25;;;;;;;304.17;179.15;;;;;;;;;;5027818;28;20267;-52
2022/09/15 11:41:11;;;;;;;312.23;187.18;;;;;;;;;;5022771;28;20234;-52
2022/09/15 11:43:44;;;;;;;301.95;176.45;;;;;;;;;;5011661;28;20254;-52
2022/09/15 11:46:12;;;;;;;310.63;184.27;;;;;;;;;;5021811;28;20183;-52
2022/09/15 11:48:44;;;;;;;328.00;185.93;;;;;;;;;;5021607;28;20215;-52
2022/09/15 11:51:13;;;;;;;318.38;191.40;;;;;;;;;;5021718;28;20212;-52
2022/09/15 11:53:41;;;;;;;314.42;186.32;;;;;;;;;;5024425;28;20447;-53
2022/09/15 11:56:25;;;;;;;306.20;179.80;;;;;;;;;;5024307;28;20239;-52
2022/09/15 11:59:00;;;;;;;336.75;199.52;;;;;;;;;;5024331;28;20802;-53
2022/09/15 12:01:45;;;;;;;301.13;177.55;;;;;;;;;;5027276;28;20595;-53
2022/09/15 12:04:18;;;;;;;310.73;187.18;;;;;;;;;;5025968;28;20204;-52
2022/09/15 12:06:56;;;;;;;300.33;181.82;;;;;;;;;;5023550;28;20636;-53
2022/09/15 12:09:22;;;;;;;308.73;188.35;;;;;;;;;;5029387;28;20279;-52
2022/09/15 12:11:51;;;;;;;295.10;182.27;;;;;;;;;;5030558;28;20593;-52
2022/09/15 12:14:28;;;;;;;316.13;188.68;;;;;;;;;;5034636;28;20206;-53
2022/09/15 12:16:54;;;;;;;336.23;199.73;;;;;;;;;;5024852;28;20537;-53
2022/09/15 12:19:23;;;;;;;351.67;202.88;;;;;;;;;;5030853;28;20238;-53
2022/09/15 12:21:52;;;;;;;342.30;193.23;;;;;;;;;;5030846;28;20184;-53
2022/09/15 12:24:27;;;;;;;345.95;191.50;;;;;;;;;;5027800;28;20208;-52
2022/09/15 12:26:53;;;;;;;352.92;187.15;;;;;;;;;;5028377;28;20651;-52
2022/09/15 12:29:30;;;;;;;351.65;192.60;;;;;;;;;;5033588;28;20257;-53
2022/09/15 12:32:16;;;;;;;379.65;205.70;;;;;;;;;;5024961;28;20173;-53
2022/09/15 12:34:54;;;;;;;352.65;197.10;;;;;;;;;;5003958;28;20216;-53
2022/09/15 12:37:20;;;;;;;364.98;207.65;;;;;;;;;;5030474;28;20183;-53
2022/09/15 12:39:46;;;;;;;358.73;189.48;;;;;;;;;;5031348;28;20168;-53
2022/09/15 12:42:26;;;;;;;369.15;200.73;;;;;;;;;;5022740;28;20184;-53
2022/09/15 12:44:55;;;;;;;375.98;205.43;;;;;;;;;;5020814;28;20240;-52
2022/09/15 12:47:37;;;;;;;370.92;200.40;;;;;;;;;;5023903;28;20226;-52
2022/09/15 12:50:04;;;;;;;363.17;200.75;;;;;;;;;;5026593;28;20199;-53
2022/09/15 12:52:30;;;;;;;344.95;195.35;;;;;;;;;;5028012;28;20632;-53
2022/09/15 12:55:00;;;;;;;349.25;200.95;;;;;;;;;;5032748;28;20282;-53
2022/09/15 12:57:29;;;;;;;331.25;190.07;;;;;;;;;;5033553;28;20253;-53
2022/09/15 13:00:14;;;;;;;341.38;195.20;;;;;;;;;;5032368;28;20180;-53
2022/09/15 13:02:41;;;;;;;349.65;197.90;;;;;;;;;;5030454;28;20179;-53
2022/09/15 13:05:10;;;;;;;346.30;196.52;;;;;;;;;;5032190;28;20302;-53
2022/09/15 13:07:51;;;;;;;333.75;190.52;;;;;;;;;;5032466;28;20216;-53
2022/09/15 13:10:28;;;;;;;333.75;181.75;;;;;;;;;;5031298;28;20218;-53
2022/09/15 13:13:02;;;;;;;338.33;185.63;;;;;;;;;;5031766;28;20168;-53
2022/09/15 13:15:28;;;;;;;367.73;195.70;;;;;;;;;;5030725;28;20188;-53
2022/09/15 13:17:54;;;;;;;347.47;179.93;;;;;;;;;;5031017;28;20525;-53
2022/09/15 13:20:24;;;;;;;346.77;181.32;;;;;;;;;;5030974;28;20584;-53
2022/09/15 13:22:52;;;;;;;351.60;188.63;;;;;;;;;;5031442;28;20176;-53
2022/09/15 13:25:22;;;;;;;367.23;206.50;;;;;;;;;;5030592;28;20200;-53
2022/09/15 13:28:01;;;;;;;356.83;198.07;;;;;;;;;;5031368;28;20686;-53
2022/09/15 13:30:30;;;;;;;337.70;190.80;;;;;;;;;;5030972;28;20173;-52
2022/09/15 13:33:11;;;;;;;345.85;180.18;;;;;;;;;;5030632;28;20226;-53
2022/09/15 13:36:01;;;;;;;319.77;163.48;;;;;;;;;;5030799;28;20235;-53
2022/09/15 13:38:36;;;;;;;352.40;180.93;;;;;;;;;;5020355;28;20669;-53
2022/09/15 13:41:13;;;;;;;345.35;180.38;;;;;;;;;;5030978;28;20187;-53
2022/09/15 13:43:48;;;;;;;349.77;178.82;;;;;;;;;;5030297;28;20161;-53
2022/09/15 13:46:23;;;;;;;343.02;179.27;;;;;;;;;;5030850;28;20191;-53
2022/09/15 13:48:49;;;;;;;354.40;179.30;;;;;;;;;;5030147;28;20188;-53
2022/09/15 13:51:23;;;;;;;336.60;176.68;;;;;;;;;;5031013;28;20226;-53
2022/09/15 13:53:56;;;;;;;339.15;186.30;;;;;;;;;;5030135;28;20674;-53
2022/09/15 13:56:36;;;;;;;309.40;170.38;;;;;;;;;;5030633;28;20177;-53
2022/09/15 13:59:04;;;;;;;343.02;177.32;;;;;;;;;;5030700;28;20148;-52
2022/09/15 14:01:33;;;;;;;359.35;190.30;;;;;;;;;;5030144;28;20168;-53
2022/09/15 14:04:01;;;;;;;352.67;189.10;;;;;;;;;;5030100;28;20311;-53